Time;durP1;ratioP1;P1;durP2;ratioP2;P2;SDS_P1;SDS_P2;PMS_P1;PMS_P2;Temp;Humidity;BMP_temperature;BMP_pressure;BME280_temperature;BME280_humidity;BME280_pressure;Samples;Min_cycle;Max_cycle;Signal;HPM_P1;HPM_P2
2022/07/10 15:07:17;;;;;;;3.25;3.05;;;38.40;29.20;;;31.32;27.91;95969.81;5084084;27;20173;-53
2022/07/10 15:09:49;;;;;;;3.35;2.88;;;37.30;27.90;;;31.01;28.26;95971.31;5064876;28;20101;-51
2022/07/10 15:12:20;;;;;;;3.78;2.90;;;36.90;27.10;;;31.03;27.64;95974.47;5064991;28;20028;-54
2022/07/10 15:14:46;;;;;;;3.45;3.00;;;36.60;26.70;;;30.73;28.34;95971.94;5046875;28;20028;-54
2022/07/10 15:17:12;;;;;;;3.50;3.20;;;36.40;26.30;;;31.00;28.43;95967.00;5043191;28;20108;-53
2022/07/10 15:19:41;;;;;;;4.38;3.97;;;37.60;25.80;;;31.49;27.87;95971.03;5052973;28;20067;-56
2022/07/10 15:22:07;;;;;;;4.57;4.28;;;39.80;24.50;;;32.22;27.26;95967.94;5052982;28;20021;-54
2022/07/10 15:24:33;;;;;;;5.43;4.93;;;41.80;23.40;;;32.75;27.02;95968.19;5050192;28;20028;-57
2022/07/10 15:26:59;;;;;;;6.18;5.68;;;43.70;22.40;;;33.18;25.58;95968.81;5053106;28;20482;-55
2022/07/10 15:29:25;;;;;;;5.85;5.55;;;45.40;21.10;;;34.01;24.99;95960.78;5046152;28;20158;-54
2022/07/10 15:31:52;;;;;;;5.90;5.53;;;46.80;20.20;;;34.42;24.31;95962.78;5047209;28;20025;-56
2022/07/10 15:34:19;;;;;;;6.18;5.78;;;48.20;19.20;;;35.02;23.28;95966.84;5051493;28;20783;-55
2022/07/10 15:36:50;;;;;;;4.30;3.97;;;48.80;18.60;;;34.58;24.03;95965.81;5058617;28;20036;-55
2022/07/10 15:39:16;;;;;;;4.20;3.90;;;47.90;18.40;;;34.31;24.08;95958.13;5031717;28;20120;-54
2022/07/10 15:44:16;;;;;;;5.18;4.88;;;45.90;18.80;;;33.81;24.49;95960.53;5021997;28;20064;-49
2022/07/10 15:46:45;;;;;;;4.43;4.13;;;45.50;19.00;;;33.82;24.62;95960.16;5004020;28;20041;-51
2022/07/10 15:49:14;;;;;;;4.00;3.70;;;45.80;18.70;;;33.81;24.95;95957.78;5003787;28;20099;-46
2022/07/10 15:51:40;;;;;;;7.68;4.55;;;45.40;18.80;;;33.70;24.83;95949.59;4986912;28;20017;-49
2022/07/10 15:54:18;;;;;;;4.13;3.83;;;44.70;19.00;;;33.33;25.63;95961.25;4999864;28;20075;-50
2022/07/10 15:56:44;;;;;;;3.60;3.30;;;43.90;19.40;;;33.14;25.59;95951.50;5020671;28;20479;-48
2022/07/10 15:59:11;;;;;;;4.40;4.10;;;43.10;19.70;;;33.02;25.73;95954.72;5004156;28;20025;-48
2022/07/10 16:01:45;;;;;;;5.05;4.75;;;43.60;19.60;;;33.28;26.00;95953.41;5013947;28;20025;-48
2022/07/10 16:04:13;;;;;;;5.13;4.80;;;45.20;19.00;;;33.46;26.03;95950.53;5001591;28;20025;-48
2022/07/10 16:06:39;;;;;;;3.90;3.60;;;46.10;18.60;;;33.24;26.17;95952.63;4993526;28;20032;-48
2022/07/10 16:09:05;;;;;;;4.70;3.65;;;45.80;18.50;;;32.85;26.59;95948.09;4990975;28;20021;-52
2022/07/10 16:11:31;;;;;;;5.82;3.53;;;44.50;18.90;;;32.35;26.63;95945.47;5007211;28;20403;-48
2022/07/10 16:13:57;;;;;;;3.30;3.05;;;43.10;19.40;;;32.07;27.08;95949.06;5025116;28;20096;-51
2022/07/10 16:16:23;;;;;;;4.00;3.70;;;41.80;20.10;;;31.14;29.04;95946.19;5024822;28;20040;-51
2022/07/10 16:18:52;;;;;;;3.10;2.90;;;40.70;20.80;;;30.49;30.11;95948.66;4990844;28;20972;-47
2022/07/10 16:21:19;;;;;;;3.30;3.00;;;39.40;21.40;;;29.62;31.25;95949.25;5005536;28;20152;-47
2022/07/10 16:23:46;;;;;;;3.28;2.92;;;38.20;22.20;;;28.69;32.76;95950.16;4990696;28;20025;-47
2022/07/10 16:26:12;;;;;;;3.25;3.05;;;37.10;23.00;;;27.84;34.50;95945.06;4987344;28;20551;-49
2022/07/10 16:28:39;;;;;;;3.30;2.92;;;36.00;23.50;;;26.78;36.07;95945.47;4998855;28;20047;-49
2022/07/10 16:31:06;;;;;;;3.47;2.80;;;35.00;24.20;;;26.20;37.36;95951.66;5011808;28;20033;-48
2022/07/10 16:33:33;;;;;;;2.72;2.53;;;34.10;24.90;;;25.94;38.71;95943.25;4974407;28;20044;-47
2022/07/10 16:35:59;;;;;;;3.30;2.72;;;33.40;25.70;;;25.81;39.03;95945.28;4988841;28;20108;-52
2022/07/10 16:38:26;;;;;;;3.53;3.22;;;32.80;26.40;;;25.19;39.56;95942.16;5006675;28;20028;-48
2022/07/10 16:40:54;;;;;;;3.35;3.08;;;32.20;26.90;;;25.16;39.89;95945.59;5001695;28;20021;-49
2022/07/10 16:43:27;;;;;;;5.90;3.00;;;31.70;27.50;;;24.79;40.52;95934.88;4986834;28;20251;-47
2022/07/10 16:45:53;;;;;;;;;;;31.30;28.00;;;24.64;41.40;95949.22;4995285;28;20551;-47
2022/07/10 16:48:23;;;;;;;2.67;2.45;;;30.80;27.90;;;24.54;41.95;95936.91;5010222;28;20038;-47
2022/07/10 16:50:53;;;;;;;3.30;2.90;;;30.50;28.60;;;24.40;41.37;95936.44;4988642;28;20141;-47
2022/07/10 16:53:25;;;;;;;3.38;3.08;;;30.10;29.20;;;24.28;42.54;95936.47;5007876;28;20428;-50
2022/07/10 16:55:55;;;;;;;3.03;2.72;;;29.80;29.70;;;24.32;42.25;95943.63;5010935;28;20032;-47
2022/07/10 16:58:23;;;;;;;5.72;2.80;;;29.50;30.00;;;24.43;41.67;95933.84;4990256;28;20103;-47
2022/07/10 17:00:50;;;;;;;3.13;2.80;;;29.30;30.40;;;24.07;42.23;95933.91;5004461;28;20021;-50
2022/07/10 17:03:16;;;;;;;2.60;2.40;;;29.10;30.70;;;23.98;42.81;95944.94;4989031;28;20060;-50
2022/07/10 17:05:43;;;;;;;3.30;2.60;;;29.00;31.10;;;23.91;42.73;95940.06;4988508;28;20033;-47
2022/07/10 17:08:09;;;;;;;3.35;3.05;;;28.90;31.50;;;23.49;43.34;95947.63;4993254;28;20035;-49
2022/07/10 17:10:36;;;;;;;3.38;2.45;;;28.70;31.70;;;23.43;44.46;95940.81;4992983;28;20121;-51
2022/07/10 17:13:03;;;;;;;4.60;3.00;;;28.50;32.10;;;23.44;44.38;95943.22;4992271;28;20046;-48
2022/07/10 17:15:32;;;;;;;5.30;2.83;;;28.30;32.40;;;23.43;43.83;95947.03;4989262;28;20052;-51
2022/07/10 17:17:58;;;;;;;3.47;3.05;;;28.20;32.70;;;23.41;44.10;95945.78;5011046;28;20238;-53
2022/07/10 17:20:24;;;;;;;3.17;2.88;;;28.10;33.00;;;23.36;43.88;95943.31;4997673;28;20038;-47
2022/07/10 17:22:54;;;;;;;2.78;2.53;;;28.00;33.20;;;23.11;44.93;95954.13;4989656;28;20046;-50
2022/07/10 17:25:26;;;;;;;2.80;2.60;;;27.80;33.50;;;22.95;45.08;95953.97;4989475;28;20033;-49
2022/07/10 17:27:58;;;;;;;3.05;2.75;;;27.70;33.70;;;22.92;45.05;95953.81;4996862;28;20026;-50
2022/07/10 17:30:26;;;;;;;3.50;2.75;;;27.60;33.80;;;22.85;44.75;95960.59;5001870;28;20025;-49
2022/07/10 17:33:09;;;;;;;2.60;2.40;;;27.50;33.90;;;22.77;44.50;95953.28;4989141;28;20082;-47
2022/07/10 17:35:38;;;;;;;2.72;2.53;;;27.50;34.20;;;22.60;45.43;95953.47;5009057;28;20032;-49
2022/07/10 17:38:04;;;;;;;9.25;2.40;;;27.30;34.10;;;22.58;44.55;95963.84;5006577;28;20112;-51
2022/07/10 17:40:30;;;;;;;2.90;2.30;;;27.20;34.20;;;22.49;45.33;95960.41;5008606;28;20098;-52
2022/07/10 17:42:59;;;;;;;2.70;2.47;;;27.10;34.50;;;21.99;45.85;95955.78;4971016;28;20424;-47
2022/07/10 17:45:25;;;;;;;2.65;2.20;;;27.00;34.70;;;22.08;46.17;95965.44;5006769;28;20037;-49
2022/07/10 17:47:57;;;;;;;5.22;3.45;;;26.80;34.80;;;22.14;46.19;95961.44;4988687;28;20046;-46
2022/07/10 17:50:23;;;;;;;3.73;2.37;;;26.70;35.00;;;22.00;45.99;95955.47;4986911;28;20025;-46
2022/07/10 17:52:52;;;;;;;3.00;2.70;;;26.60;35.10;;;21.99;45.66;95966.63;4989066;28;20025;-46
2022/07/10 17:55:18;;;;;;;3.00;2.70;;;26.60;35.30;;;21.83;45.91;95972.63;4999281;28;20030;-46
2022/07/10 17:57:44;;;;;;;3.40;2.33;;;26.50;35.30;;;21.67;46.55;95980.50;4989908;28;20037;-51
2022/07/10 18:00:25;;;;;;;3.60;2.65;;;26.50;35.40;;;21.84;45.83;95973.41;4992736;28;20029;-48
2022/07/10 18:02:51;;;;;;;2.55;2.30;;;26.50;35.50;;;21.93;45.94;95980.38;4988660;28;20030;-49
2022/07/10 18:05:26;;;;;;;2.47;2.22;;;26.50;35.40;;;21.73;46.08;95972.19;5007388;28;20052;-46
2022/07/10 18:07:52;;;;;;;2.65;2.45;;;26.50;35.60;;;21.69;46.40;95980.19;4989294;28;20026;-46
2022/07/10 18:10:17;;;;;;;2.63;2.28;;;26.40;35.50;;;21.53;46.94;95982.66;5007964;28;20027;-48
2022/07/10 18:12:43;;;;;;;2.55;1.90;;;26.30;35.60;;;21.35;47.46;95992.75;4922021;28;25853;-50
2022/07/10 18:15:12;;;;;;;2.28;2.08;;;26.20;35.80;;;21.24;47.77;95986.03;4953801;28;20022;-48
2022/07/10 18:17:38;;;;;;;4.65;1.95;;;26.00;36.10;;;21.08;47.92;95993.88;4970902;28;20057;-49
2022/07/10 18:20:05;;;;;;;3.03;2.33;;;25.80;36.20;;;20.95;48.13;95989.47;4953824;28;20034;-47
2022/07/10 18:22:31;;;;;;;4.22;2.35;;;25.70;36.50;;;20.83;48.17;95997.44;4953137;28;20025;-49
2022/07/10 18:24:57;;;;;;;4.88;2.00;;;25.60;36.70;;;20.87;47.81;96001.91;4970505;28;20496;-48
2022/07/10 18:27:23;;;;;;;2.67;2.03;;;25.50;36.80;;;20.73;47.89;95995.84;4970910;28;20488;-52
2022/07/10 18:29:50;;;;;;;6.10;2.00;;;25.30;36.80;;;20.69;48.15;96003.81;4953427;28;20069;-48
2022/07/10 18:34:26;;;;;;;3.55;1.85;;;25.30;37.00;;;20.64;47.64;95998.56;4970190;28;20108;-46
2022/07/10 18:35:04;;;;;;;5.32;1.83;;;25.20;37.00;;;20.53;47.57;96002.72;4956374;28;20485;-47
2022/07/10 18:37:30;;;;;;;3.38;1.75;;;25.10;36.90;;;20.40;47.99;95988.19;4969415;28;20038;-46
2022/07/10 18:39:56;;;;;;;2.00;1.80;;;25.00;36.90;;;20.30;48.64;96012.81;4952816;28;20508;-46
2022/07/10 18:42:22;;;;;;;5.50;1.88;;;24.90;37.20;;;20.26;48.92;96015.38;4969773;28;20037;-46
2022/07/10 18:44:57;;;;;;;2.95;1.98;;;24.80;37.40;;;20.15;49.59;96024.09;4970512;28;20014;-46
2022/07/10 18:47:25;;;;;;;4.63;1.80;;;24.70;37.80;;;20.02;49.73;96025.81;4970467;28;20408;-46
2022/07/10 18:49:54;;;;;;;2.88;1.70;;;24.50;37.90;;;19.99;49.76;96027.22;4969189;28;20026;-46
2022/07/10 18:52:26;;;;;;;5.18;1.63;;;24.40;38.10;;;19.89;50.15;96014.00;4952867;28;20030;-46
2022/07/10 18:54:52;;;;;;;3.00;1.80;;;24.30;38.30;;;19.81;49.79;96017.50;4952678;28;20034;-45
2022/07/10 18:57:21;;;;;;;2.15;1.73;;;24.10;38.40;;;19.67;49.60;96014.88;4970197;28;20037;-46
2022/07/10 18:59:49;;;;;;;3.00;2.17;;;23.90;38.60;;;19.55;49.89;96033.53;4970420;28;20029;-47
2022/07/10 19:02:20;;;;;;;2.47;1.80;;;23.80;38.80;;;19.47;49.95;96029.72;4936626;28;20037;-47
2022/07/10 19:04:49;;;;;;;2.90;1.50;;;23.70;38.90;;;19.38;50.23;96032.34;4970087;28;20077;-45
2022/07/10 19:07:17;;;;;;;2.42;1.50;;;23.60;39.20;;;19.28;50.71;96021.81;4970081;28;20030;-48
2022/07/10 19:09:49;;;;;;;2.35;1.50;;;23.40;39.30;;;19.16;50.99;96030.47;4969554;28;20733;-45
2022/07/10 19:12:15;;;;;;;3.23;1.43;;;23.30;39.50;;;19.02;51.52;96035.16;4949295;29;20081;-47
2022/07/10 19:14:47;;;;;;;3.65;1.35;;;23.20;39.70;;;18.93;51.40;96034.31;4946310;28;20652;-46
2022/07/10 19:17:13;;;;;;;3.17;1.88;;;23.10;40.00;;;18.81;51.19;96042.94;4937196;28;20030;-45
2022/07/10 19:19:39;;;;;;;4.82;1.30;;;22.90;40.00;;;18.79;50.65;96050.53;4969904;28;20069;-45
2022/07/10 19:22:05;;;;;;;2.13;1.30;;;22.80;40.00;;;18.68;50.35;96041.06;4952303;28;20030;-48
2022/07/10 19:24:30;;;;;;;3.08;1.30;;;22.70;40.10;;;18.62;49.99;96045.00;4969513;28;20030;-45
2022/07/10 19:26:56;;;;;;;4.13;1.20;;;22.60;40.10;;;18.55;50.38;96052.69;4969688;28;20042;-47
2022/07/10 19:29:22;;;;;;;2.65;1.25;;;22.60;40.20;;;18.50;50.61;96059.00;4969709;28;20022;-47
2022/07/10 19:31:49;;;;;;;3.00;1.20;;;22.50;40.20;;;18.39;50.54;96066.50;4952346;28;20041;-45
2022/07/10 19:34:22;;;;;;;6.88;1.13;;;22.40;40.30;;;18.27;50.36;96066.25;4953204;28;20077;-46
2022/07/10 19:36:48;;;;;;;3.10;1.00;;;22.30;40.40;;;18.18;49.75;96076.13;4969638;28;20058;-46
2022/07/10 19:39:17;;;;;;;3.03;1.10;;;22.20;40.30;;;18.14;49.02;96080.50;4952257;28;20037;-48
2022/07/10 19:41:43;;;;;;;1.42;1.10;;;22.10;40.20;;;18.10;48.69;96082.22;4952405;28;20033;-47
2022/07/10 19:44:09;;;;;;;4.22;0.80;;;22.00;40.10;;;18.01;48.82;96092.88;4951940;28;20041;-46
2022/07/10 19:46:38;;;;;;;4.32;0.88;;;21.90;40.10;;;17.88;49.37;96096.38;4969711;28;20030;-47
2022/07/10 19:49:10;;;;;;;2.58;1.10;;;21.80;40.10;;;17.84;48.68;96092.69;4952562;28;20527;-46
2022/07/10 19:51:36;;;;;;;2.40;0.90;;;21.80;40.10;;;17.79;48.86;96098.97;4969243;28;20030;-46
2022/07/10 19:54:02;;;;;;;5.18;0.95;;;21.60;40.00;;;17.75;48.45;96096.03;4955930;28;20435;-47
2022/07/10 19:56:28;;;;;;;1.15;0.82;;;21.50;40.00;;;17.68;48.65;96101.03;4974037;28;20022;-46
2022/07/10 19:58:57;;;;;;;1.98;0.77;;;21.50;40.10;;;17.65;49.28;96098.94;4974400;28;20499;-47
2022/07/10 20:01:23;;;;;;;2.15;0.75;;;21.50;40.20;;;17.55;49.01;96097.22;4974495;28;20022;-47
2022/07/10 20:03:55;;;;;;;2.20;0.90;;;21.40;40.10;;;17.51;49.17;96111.56;4973802;28;20022;-48
2022/07/10 20:06:21;;;;;;;1.02;0.82;;;21.40;40.20;;;17.44;49.30;96105.75;4974369;28;20030;-46
2022/07/10 20:08:50;;;;;;;3.20;0.68;;;21.30;40.20;;;17.35;49.39;96119.09;4956801;28;20176;-46
2022/07/10 20:11:22;;;;;;;2.67;0.60;;;21.20;40.20;;;17.26;49.80;96113.56;4956933;28;20113;-47
2022/07/10 20:13:51;;;;;;;2.25;0.85;;;21.20;40.40;;;17.22;49.74;96117.16;4973432;28;20077;-46
2022/07/10 20:16:29;;;;;;;2.85;0.82;;;21.10;40.40;;;17.13;50.17;96116.22;4973953;28;20393;-47
2022/07/10 20:18:55;;;;;;;2.15;0.80;;;21.00;40.60;;;17.07;50.36;96123.56;4940902;28;20068;-49
2022/07/10 20:21:24;;;;;;;2.63;0.88;;;20.90;40.50;;;17.03;50.71;96122.56;4974052;28;20022;-46
2022/07/10 20:23:51;;;;;;;3.50;0.88;;;20.90;40.80;;;16.96;50.76;96122.13;4956309;28;20033;-46
2022/07/10 20:26:17;;;;;;;0.80;0.80;;;20.80;40.80;;;16.91;50.97;96127.59;4973690;28;20583;-49
2022/07/10 20:28:43;;;;;;;2.75;0.85;;;20.80;40.90;;;16.85;51.49;96122.25;4940318;28;20099;-45
2022/07/10 20:31:11;;;;;;;1.55;0.80;;;20.70;41.00;;;16.84;51.31;96120.69;4972729;28;20054;-46
2022/07/10 20:33:37;;;;;;;3.05;0.98;;;20.70;41.20;;;16.78;51.56;96123.72;4973445;28;20018;-48
2022/07/10 20:38:48;;;;;;;1.08;0.73;;;20.60;41.40;;;16.64;52.17;96129.00;4973774;28;20414;-46
2022/07/10 20:41:14;;;;;;;3.30;1.00;;;20.50;41.50;;;16.60;52.35;96126.06;4973747;28;20112;-46
2022/07/10 20:43:43;;;;;;;1.75;0.70;;;20.50;41.60;;;16.55;52.48;96131.53;4955958;28;20501;-47
2022/07/10 20:46:12;;;;;;;1.40;0.88;;;20.40;41.80;;;16.50;52.77;96122.72;4973721;28;20052;-46
2022/07/10 20:48:44;;;;;;;1.42;0.70;;;20.30;41.80;;;16.42;53.15;96126.84;4973886;28;20424;-45
2022/07/10 20:51:10;;;;;;;2.97;0.80;;;20.30;42.10;;;16.34;53.17;96125.63;4973580;28;20456;-46
2022/07/10 20:53:36;;;;;;;2.47;0.75;;;20.20;42.10;;;16.29;53.13;96131.03;4973051;28;20036;-46
2022/07/10 20:56:02;;;;;;;3.10;1.02;;;20.10;42.80;;;16.26;53.22;96118.16;4972120;28;20022;-46
2022/07/10 20:58:28;;;;;;;1.77;0.80;;;20.10;42.40;;;16.19;53.12;96126.59;4956586;28;20022;-46
2022/07/10 21:01:00;;;;;;;1.92;0.80;;;20.00;42.40;;;16.15;53.35;96124.78;4956442;28;20029;-45
2022/07/10 21:03:29;;;;;;;4.35;0.90;;;20.00;42.60;;;16.12;53.17;96128.03;4972042;28;20026;-47
2022/07/10 21:06:01;;;;;;;4.45;1.00;;;20.00;42.70;;;16.11;53.02;96129.91;4940095;28;20036;-46
2022/07/10 21:08:36;;;;;;;2.20;0.70;;;19.90;42.80;;;16.10;53.14;96138.25;4940257;28;20022;-50
2022/07/10 21:11:05;;;;;;;1.83;0.93;;;19.90;42.80;;;16.05;53.46;96136.44;4952681;28;20033;-48
2022/07/10 21:13:31;;;;;;;3.80;0.75;;;19.80;42.80;;;16.07;53.25;96139.63;4969641;28;20033;-46
2022/07/10 21:15:57;;;;;;;1.40;0.70;;;19.80;42.90;;;16.04;53.55;96137.50;4973344;28;20473;-48
2022/07/10 21:18:24;;;;;;;2.00;0.65;;;19.80;43.00;;;16.02;53.33;96136.22;4939882;28;20022;-53
2022/07/10 21:20:56;;;;;;;2.78;0.80;;;19.80;43.70;;;16.05;53.46;96130.28;4956183;28;20384;-47
2022/07/10 21:23:29;;;;;;;3.73;1.00;;;19.80;43.20;;;16.04;53.07;96140.19;4972773;28;20018;-47
2022/07/10 21:25:55;;;;;;;1.33;0.60;;;19.80;43.20;;;16.05;53.12;96132.97;4973036;28;20747;-47
2022/07/10 21:28:24;;;;;;;1.67;0.65;;;19.80;43.10;;;16.07;52.99;96123.50;4973285;28;20038;-51
2022/07/10 21:30:50;;;;;;;1.77;1.17;;;19.70;43.10;;;16.05;52.89;96128.38;4955769;28;20389;-47
2022/07/10 21:33:19;;;;;;;3.38;0.85;;;19.80;43.10;;;16.07;53.24;96133.44;4972327;28;20424;-46
2022/07/10 21:35:45;;;;;;;2.85;1.15;;;19.80;43.20;;;16.07;53.11;96133.44;4972751;28;20029;-47
2022/07/10 21:38:14;;;;;;;2.42;0.80;;;19.80;43.20;;;16.07;53.09;96138.81;4955674;28;20033;-49
2022/07/10 21:40:40;;;;;;;4.00;0.88;;;19.80;43.20;;;16.03;53.32;96146.66;4955314;28;20477;-47
2022/07/10 21:43:06;;;;;;;4.05;0.80;;;19.80;43.30;;;16.06;53.34;96147.97;4976381;23;20422;-47
2022/07/10 21:45:33;;;;;;;3.75;1.00;;;19.80;43.20;;;16.02;53.40;96149.66;4989804;28;20061;-45
2022/07/10 21:47:58;;;;;;;2.42;1.05;;;19.80;43.30;;;16.02;53.80;96155.81;4972783;28;20022;-50
2022/07/10 21:50:24;;;;;;;1.95;0.60;;;19.80;43.30;;;16.01;53.38;96148.81;4973553;28;20049;-45
2022/07/10 21:52:53;;;;;;;2.58;0.60;;;19.80;43.30;;;15.98;53.90;96157.44;4991861;28;20448;-45
2022/07/10 21:55:22;;;;;;;3.17;0.80;;;19.80;43.40;;;16.00;53.81;96157.19;4991889;28;20138;-46
2022/07/10 21:57:48;;;;;;;2.53;0.73;;;19.70;43.40;;;15.98;54.03;96168.19;4991857;28;20018;-44
2022/07/10 22:00:14;;;;;;;1.73;0.80;;;19.70;43.40;;;15.96;54.11;96162.31;4990534;28;20040;-50
2022/07/10 22:02:44;;;;;;;4.78;0.88;;;19.70;43.50;;;15.93;54.22;96166.38;4991548;28;20121;-45
2022/07/10 22:05:12;;;;;;;2.75;0.80;;;19.70;43.60;;;15.91;54.22;96163.16;4990758;28;20072;-45
2022/07/10 22:07:41;;;;;;;3.60;0.80;;;19.70;43.70;;;15.87;54.78;96159.47;4990788;28;20480;-46
2022/07/10 22:10:09;;;;;;;1.75;0.77;;;19.70;43.80;;;15.83;54.47;96165.69;4974244;28;20033;-45
2022/07/10 22:12:44;;;;;;;2.08;0.85;;;19.60;43.80;;;15.84;54.49;96165.41;4989942;28;20037;-45
2022/07/10 22:15:13;;;;;;;2.42;0.90;;;19.60;43.90;;;15.81;54.84;96162.47;4991349;28;20045;-45
2022/07/10 22:17:43;;;;;;;2.72;0.68;;;19.60;44.00;;;15.79;54.90;96162.75;4990337;28;20399;-45
2022/07/10 22:20:11;;;;;;;3.53;0.70;;;19.60;44.00;;;15.79;54.62;96164.63;5006537;28;20105;-46
2022/07/10 22:22:45;;;;;;;2.90;0.70;;;19.60;44.10;;;15.79;54.56;96164.63;4973705;28;20041;-45
2022/07/10 22:25:35;;;;;;;2.88;0.82;;;19.50;44.20;;;15.80;54.54;96167.06;5005938;28;20392;-49
2022/07/10 22:28:00;;;;;;;2.40;0.75;;;19.50;44.10;;;15.75;55.13;96160.91;4991253;28;20044;-47
2022/07/10 22:33:17;;;;;;;3.22;1.10;;;19.40;44.20;;;15.64;55.19;96152.94;4990915;28;20032;-45
2022/07/10 22:35:46;;;;;;;2.35;0.90;;;19.40;44.30;;;15.63;55.11;96150.50;4990038;28;20590;-45
2022/07/10 22:38:12;;;;;;;6.45;0.95;;;19.40;44.40;;;15.65;54.95;96153.72;4991227;28;20057;-45
